Fenwick Island, Delaware
Current Conditions -  °F | °C
As of 1:53 PM on Thursday 30 Oct 2014 (Local Time) from KOXB Reporting Station
Broken Clouds Broken Clouds  
Wind Chill: 60°   Ceiling: 6000
Heat Index: 60°   Visibility: 10mi
Dew Point: 43°   Wind: 6mph
Humidity: 53%   Direction: 50°NE
Pressure: 29.99"   Gusts: NA
Location:  38.46°N, 75.05°W
Report Text: KOXB 301753Z AUTO 05005KT 10SM SCT046 BKN060 16/06 A2999 RMK AO2 SLP156 T01560061 10167 20089 58009 TSNO
Loading
Personal Weather Stations






























Interactive Weather Map
Tropical Storm Tracking
New forecast layout! Learn more

10-Day Weather Forecast

Advertisements
Track Severe Weather on mobile